Time;durP1;ratioP1;P1;durP2;ratioP2;P2;SDS_P1;SDS_P2;PMS_P1;PMS_P2;Temp;Humidity;BMP_temperature;BMP_pressure;BME280_temperature;BME280_humidity;BME280_pressure;Samples;Min_cycle;Max_cycle;Signal;HPM_P1;HPM_P2
2023/09/22 00:00:36;;;;;;;6.10;4.00;;;;;;;18.48;87.26;99722.73;105537;1265;98421;-84
2023/09/22 00:03:32;;;;;;;6.70;3.90;;;;;;;18.47;87.28;99724.08;105676;1263;102686;-84
2023/09/22 00:06:18;;;;;;;5.20;3.80;;;;;;;18.47;87.23;99725.38;105607;1267;99783;-84
2023/09/22 00:09:05;;;;;;;6.40;3.90;;;;;;;18.46;87.30;99722.44;105681;1266;98749;-84
2023/09/22 00:11:51;;;;;;;8.70;4.00;;;;;;;18.45;87.18;99718.09;105582;1267;97967;-84
2023/09/22 00:14:37;;;;;;;7.00;4.20;;;;;;;18.43;87.18;99716.33;105817;1264;98598;-84
2023/09/22 00:17:22;;;;;;;5.90;3.50;;;;;;;18.38;87.15;99713.45;105685;1264;101477;-84
2023/09/22 00:20:09;;;;;;;6.60;4.10;;;;;;;18.38;87.10;99712.96;105710;1267;99087;-84
2023/09/22 00:22:54;;;;;;;5.00;3.90;;;;;;;18.35;87.31;99716.23;105514;1262;98019;-83
2023/09/22 00:25:41;;;;;;;5.20;3.70;;;;;;;18.33;87.46;99711.56;105657;1262;97966;-84
2023/09/22 00:28:26;;;;;;;4.80;3.50;;;;;;;18.31;87.48;99708.24;105552;1267;97652;-84
2023/09/22 00:31:11;;;;;;;7.40;4.00;;;;;;;18.31;87.37;99707.59;105548;1267;101421;-84
2023/09/22 00:33:57;;;;;;;15.10;4.40;;;;;;;18.28;87.28;99702.95;105610;1262;99717;-84
2023/09/22 00:36:43;;;;;;;4.90;4.00;;;;;;;18.27;87.28;99701.32;105699;1267;97909;-84
2023/09/22 00:39:29;;;;;;;7.10;3.80;;;;;;;18.24;87.57;99703.03;105625;1263;97898;-84
2023/09/22 00:42:15;;;;;;;6.50;3.90;;;;;;;18.22;87.73;99702.09;105685;1262;97867;-84
2023/09/22 00:45:01;;;;;;;4.50;3.80;;;;;;;18.21;87.70;99701.32;105555;1265;103616;-85
2023/09/22 00:47:47;;;;;;;6.90;4.10;;;;;;;18.21;87.63;99699.27;105671;1266;99284;-86
2023/09/22 00:50:33;;;;;;;11.20;4.10;;;;;;;18.19;87.65;99697.99;105628;1262;98034;-86
2023/09/22 00:53:19;;;;;;;5.30;3.90;;;;;;;18.19;87.93;99699.08;105574;1263;98048;-85
2023/09/22 00:56:08;;;;;;;6.00;3.80;;;;;;;18.17;87.97;99698.24;105466;1267;97920;-85
2023/09/22 00:58:54;;;;;;;6.40;4.00;;;;;;;18.17;88.21;99695.75;105679;1262;102659;-84
2023/09/22 01:01:42;;;;;;;8.40;4.30;;;;;;;18.20;88.18;99694.30;105754;1262;99182;-86
2023/09/22 01:04:28;;;;;;;6.90;4.10;;;;;;;18.21;88.26;99694.38;105581;1264;99115;-85
2023/09/22 01:07:14;;;;;;;8.10;4.60;;;;;;;18.23;88.04;99692.13;105611;1262;97994;-86
2023/09/22 01:10:09;;;;;;;8.00;4.50;;;;;;;18.23;88.04;99687.62;105826;1262;97995;-85
2023/09/22 01:12:55;;;;;;;7.80;3.80;;;;;;;18.22;88.09;99684.52;105591;1264;102357;-85
2023/09/22 01:15:42;;;;;;;5.60;4.10;;;;;;;18.20;88.00;99684.40;105728;1265;99119;-85
2023/09/22 01:18:29;;;;;;;5.30;4.00;;;;;;;18.19;88.05;99676.58;106523;1268;99050;-85
2023/09/22 01:21:16;;;;;;;6.10;4.00;;;;;;;18.19;88.23;99678.73;105534;1262;98066;-84
2023/09/22 01:24:04;;;;;;;6.90;4.40;;;;;;;18.17;88.20;99682.04;105789;1262;98659;-83
2023/09/22 01:26:50;;;;;;;5.60;4.10;;;;;;;18.16;88.34;99686.05;105655;1262;101372;-86
2023/09/22 01:29:35;;;;;;;6.80;4.30;;;;;;;18.15;88.34;99690.48;105693;1262;100066;-84
2023/09/22 01:32:21;;;;;;;5.90;3.90;;;;;;;18.16;88.36;99689.08;105776;1262;99228;-85
2023/09/22 01:35:07;;;;;;;7.10;3.90;;;;;;;18.18;88.31;99684.60;105655;1263;98581;-85
2023/09/22 01:37:58;;;;;;;5.50;3.80;;;;;;;18.19;88.19;99682.54;105916;1262;98444;-86
2023/09/22 01:40:45;;;;;;;9.60;4.90;;;;;;;18.19;88.37;99675.00;106244;1262;102709;-85
2023/09/22 01:43:30;;;;;;;6.20;3.70;;;;;;;18.19;88.10;99670.55;105683;1265;100459;-84
2023/09/22 01:46:16;;;;;;;6.10;3.80;;;;;;;18.18;88.23;99669.30;105641;1261;98467;-85
2023/09/22 01:49:02;;;;;;;8.30;5.20;;;;;;;18.14;88.26;99668.46;105430;1263;98586;-85
2023/09/22 01:51:48;;;;;;;8.20;4.10;;;;;;;18.10;88.04;99664.52;105637;1262;97942;-85
2023/09/22 01:54:34;;;;;;;6.80;4.00;;;;;;;18.09;88.26;99664.46;105694;1267;102610;-85
2023/09/22 01:57:20;;;;;;;6.30;3.80;;;;;;;18.08;88.22;99664.08;105754;1267;100480;-85
2023/09/22 02:00:10;;;;;;;5.40;3.80;;;;;;;18.06;88.23;99661.73;105674;1262;99125;-84
2023/09/22 02:03:00;;;;;;;5.50;3.90;;;;;;;18.06;88.38;99660.86;105605;1262;97981;-85
2023/09/22 02:05:46;;;;;;;6.10;4.00;;;;;;;18.05;88.21;99660.79;105673;1265;98067;-85
2023/09/22 02:08:32;;;;;;;5.30;4.20;;;;;;;18.01;88.36;99660.76;105771;1262;102532;-84
2023/09/22 02:11:18;;;;;;;8.20;4.40;;;;;;;17.99;88.18;99657.05;105518;1262;99174;-85
2023/09/22 02:14:04;;;;;;;7.80;3.90;;;;;;;17.95;88.26;99650.79;105830;1264;97936;-85
2023/09/22 02:16:50;;;;;;;5.90;4.30;;;;;;;17.89;88.25;99650.57;105710;1262;97940;-84
2023/09/22 02:19:36;;;;;;;5.80;4.00;;;;;;;17.84;88.43;99649.27;105679;1266;98412;-84
2023/09/22 02:22:22;;;;;;;6.00;3.80;;;;;;;17.78;88.43;99651.82;105648;1262;110028;-85
2023/09/22 02:25:08;;;;;;;5.40;4.20;;;;;;;17.74;88.59;99651.62;105495;1262;99860;-84
2023/09/22 02:27:56;;;;;;;6.10;4.30;;;;;;;17.70;88.61;99654.29;105876;1267;98526;-84
2023/09/22 02:30:42;;;;;;;5.50;4.10;;;;;;;17.67;88.71;99652.85;105506;1262;98042;-85
2023/09/22 02:33:29;;;;;;;8.20;4.30;;;;;;;17.65;88.82;99649.63;105728;1268;98410;-85
2023/09/22 02:36:18;;;;;;;5.50;3.90;;;;;;;17.60;88.84;99645.36;105596;1262;102125;-85
2023/09/22 02:39:04;;;;;;;8.80;4.40;;;;;;;17.55;88.99;99646.92;105545;1262;100073;-85
2023/09/22 02:41:49;;;;;;;7.50;4.60;;;;;;;17.51;89.08;99644.45;105435;1265;99530;-85
2023/09/22 02:44:35;;;;;;;8.10;4.60;;;;;;;17.50;89.30;99640.15;105685;1262;97962;-85
2023/09/22 02:47:21;;;;;;;7.40;4.40;;;;;;;17.49;89.26;99634.23;105436;1262;96587;-85
2023/09/22 02:50:10;;;;;;;5.90;3.70;;;;;;;17.45;89.31;99629.40;105566;1267;101486;-84
2023/09/22 02:52:55;;;;;;;5.10;4.10;;;;;;;17.44;89.30;99625.98;106618;1264;99210;-85
2023/09/22 02:55:41;;;;;;;10.20;4.60;;;;;;;17.40;89.39;99630.21;105644;1267;98029;-85
2023/09/22 02:58:27;;;;;;;7.30;4.50;;;;;;;17.38;89.52;99627.64;105598;1262;98053;-84
2023/09/22 03:01:14;;;;;;;7.60;4.40;;;;;;;17.34;89.47;99631.23;105660;1262;98486;-85
2023/09/22 03:04:01;;;;;;;6.20;4.20;;;;;;;17.29;89.63;99629.77;105887;1264;102272;-85
2023/09/22 03:06:46;;;;;;;8.40;4.90;;;;;;;17.25;89.80;99626.91;105863;1266;100433;-85
2023/09/22 03:09:32;;;;;;;7.40;4.30;;;;;;;17.21;89.84;99625.19;105538;1262;98953;-86
2023/09/22 03:12:18;;;;;;;7.30;4.20;;;;;;;17.18;90.09;99624.62;105439;1265;97990;-84
2023/09/22 03:15:05;;;;;;;7.10;4.20;;;;;;;17.14;90.08;99619.20;105514;1269;97927;-84
2023/09/22 03:17:51;;;;;;;6.90;4.50;;;;;;;17.08;90.16;99618.70;105831;1262;102003;-83
2023/09/22 03:20:37;;;;;;;7.30;4.20;;;;;;;17.01;90.46;99626.19;105829;1262;99145;-85
2023/09/22 03:23:24;;;;;;;6.80;5.10;;;;;;;16.96;90.68;99630.52;105581;1267;99557;-85
2023/09/22 03:26:09;;;;;;;7.00;5.10;;;;;;;16.93;90.86;99623.34;105298;1262;98056;-85
2023/09/22 03:28:55;;;;;;;8.10;4.30;;;;;;;16.91;90.91;99621.84;105868;1265;97944;-87
2023/09/22 03:31:41;;;;;;;7.20;4.70;;;;;;;16.87;91.03;99621.36;105368;1267;101416;-85
2023/09/22 03:34:28;;;;;;;6.00;4.30;;;;;;;16.86;91.03;99620.04;105675;1262;99269;-86
2023/09/22 03:37:13;;;;;;;7.20;4.50;;;;;;;16.83;91.45;99620.49;105658;1262;97889;-86
2023/09/22 03:40:09;;;;;;;5.10;4.00;;;;;;;16.78;91.54;99619.08;105387;1270;98058;-86
2023/09/22 03:42:54;;;;;;;6.20;4.50;;;;;;;16.75;91.42;99621.48;105553;1262;97974;-85
2023/09/22 03:45:40;;;;;;;8.30;4.90;;;;;;;16.74;91.68;99624.70;105649;1262;101469;-83
2023/09/22 03:48:26;;;;;;;7.90;4.80;;;;;;;16.71;91.96;99624.02;105655;1267;100444;-84
2023/09/22 03:51:11;;;;;;;8.30;4.40;;;;;;;16.69;91.93;99629.88;105438;1268;97990;-85
2023/09/22 03:53:57;;;;;;;11.30;4.80;;;;;;;16.67;92.11;99628.23;105531;1267;98683;-84
2023/09/22 03:56:42;;;;;;;6.10;4.50;;;;;;;16.64;92.29;99628.23;105659;1267;98403;-85
2023/09/22 03:59:29;;;;;;;6.20;4.80;;;;;;;16.62;92.43;99632.86;105530;1262;101458;-86
2023/09/22 04:02:14;;;;;;;7.10;4.40;;;;;;;16.60;92.47;99633.88;105640;1267;100481;-84
2023/09/22 04:05:00;;;;;;;6.20;4.40;;;;;;;16.59;92.56;99630.55;105379;1268;97987;-85
2023/09/22 04:07:45;;;;;;;6.30;4.00;;;;;;;16.58;92.63;99624.59;105466;1262;97979;-86
2023/09/22 04:10:33;;;;;;;8.40;5.00;;;;;;;16.61;92.74;99623.50;105490;1268;99721;-83
2023/09/22 04:13:18;;;;;;;9.60;4.80;;;;;;;16.58;92.56;99620.70;105521;1267;102719;-83
2023/09/22 04:16:04;;;;;;;7.90;4.60;;;;;;;16.55;92.66;99615.61;105364;1270;99229;-83
2023/09/22 04:18:54;;;;;;;8.30;4.50;;;;;;;16.56;92.72;99614.23;105650;1266;98479;-84
2023/09/22 04:21:48;;;;;;;5.80;4.20;;;;;;;16.57;92.85;99615.86;105423;1264;97982;-83
2023/09/22 04:24:34;;;;;;;8.30;4.70;;;;;;;16.58;92.82;99616.41;105607;1263;98004;-84
2023/09/22 04:27:20;;;;;;;7.80;4.80;;;;;;;16.57;92.70;99619.32;105402;1268;102671;-85
2023/09/22 04:30:07;;;;;;;7.40;4.60;;;;;;;16.56;92.96;99615.05;105556;1263;100563;-85
2023/09/22 04:32:54;;;;;;;7.80;4.60;;;;;;;16.55;92.72;99617.23;105573;1268;98462;-85
2023/09/22 04:35:40;;;;;;;11.00;5.60;;;;;;;16.52;92.81;99615.26;105537;1262;97977;-85
2023/09/22 04:38:26;;;;;;;10.30;4.80;;;;;;;16.50;93.06;99617.91;105698;1262;98469;-86
2023/09/22 04:41:12;;;;;;;6.60;4.90;;;;;;;16.49;93.22;99619.95;105609;1262;101356;-85
2023/09/22 04:43:58;;;;;;;6.90;4.70;;;;;;;16.49;93.25;99616.55;105566;1265;101537;-84
2023/09/22 04:46:44;;;;;;;7.90;4.80;;;;;;;16.48;93.50;99614.03;105497;1265;97938;-85
2023/09/22 04:49:31;;;;;;;6.70;4.20;;;;;;;16.47;93.79;99606.45;105393;1269;97922;-85
2023/09/22 04:52:17;;;;;;;7.00;4.60;;;;;;;16.50;93.88;99604.02;105444;1268;98007;-86
2023/09/22 04:55:04;;;;;;;7.00;4.40;;;;;;;16.51;93.79;99600.48;105659;1265;110195;-84
2023/09/22 04:57:49;;;;;;;9.40;4.50;;;;;;;16.51;93.93;99598.43;105548;1266;99249;-86
2023/09/22 05:00:36;;;;;;;9.00;5.10;;;;;;;16.53;94.18;99595.16;105401;1268;98299;-85
2023/09/22 05:03:22;;;;;;;8.60;4.30;;;;;;;16.56;94.39;99595.80;105527;1262;97917;-85
2023/09/22 05:06:11;;;;;;;7.80;5.00;;;;;;;16.59;94.35;99597.79;105722;1262;98431;-84
2023/09/22 05:08:56;;;;;;;5.60;4.30;;;;;;;16.64;94.33;99603.36;105478;1262;101794;-86
2023/09/22 05:11:42;;;;;;;9.50;4.80;;;;;;;16.70;94.45;99603.29;105503;1262;99669;-84
2023/09/22 05:14:28;;;;;;;7.50;4.70;;;;;;;16.76;94.39;99607.42;105696;1262;99099;-86
2023/09/22 05:17:13;;;;;;;6.20;4.40;;;;;;;16.80;94.57;99611.10;105597;1265;98092;-86
2023/09/22 05:19:59;;;;;;;8.60;4.70;;;;;;;16.85;94.48;99615.70;105509;1262;98088;-83
2023/09/22 05:22:45;;;;;;;9.20;4.70;;;;;;;16.89;94.29;99614.20;105699;1262;101439;-85
2023/09/22 05:25:32;;;;;;;6.30;4.50;;;;;;;16.93;94.46;99616.41;105487;1262;99157;-86
2023/09/22 05:28:18;;;;;;;7.40;4.10;;;;;;;17.00;94.37;99613.30;105505;1262;97996;-85
2023/09/22 05:31:08;;;;;;;11.00;4.80;;;;;;;17.07;94.46;99607.96;105668;1262;97894;-86
2023/09/22 05:33:55;;;;;;;7.60;4.60;;;;;;;17.13;94.38;99610.85;105503;1262;98090;-87
2023/09/22 05:36:42;;;;;;;9.00;4.90;;;;;;;17.19;94.31;99614.45;105622;1262;101391;-84
2023/09/22 05:39:28;;;;;;;12.80;5.10;;;;;;;17.26;94.23;99621.66;105491;1262;99944;-86
2023/09/22 05:42:14;;;;;;;6.10;4.20;;;;;;;17.32;94.03;99623.09;105726;1267;98590;-86
2023/09/22 05:45:00;;;;;;;7.60;4.40;;;;;;;17.38;94.12;99624.77;105456;1260;98049;-82
2023/09/22 05:47:46;;;;;;;7.70;4.80;;;;;;;17.45;94.04;99626.92;105590;1268;97863;-83
2023/09/22 05:50:32;;;;;;;7.20;4.10;;;;;;;17.51;93.94;99624.18;105756;1267;101438;-85
2023/09/22 05:53:17;;;;;;;6.90;5.00;;;;;;;17.55;93.91;99629.77;105795;1268;99175;-84
2023/09/22 05:56:10;;;;;;;7.50;4.70;;;;;;;17.60;94.07;99636.43;105735;1262;98069;-83
2023/09/22 05:58:55;;;;;;;5.00;3.60;;;;;;;17.65;94.10;99632.90;105669;1267;98076;-86
2023/09/22 06:01:40;;;;;;;7.00;4.30;;;;;;;17.70;93.72;99631.65;105669;1262;98578;-86
2023/09/22 06:04:26;;;;;;;8.90;4.50;;;;;;;17.76;93.72;99628.45;105955;1267;102772;-84
2023/09/22 06:07:14;;;;;;;10.90;4.90;;;;;;;17.84;93.93;99632.26;105697;1266;99123;-84
2023/09/22 06:10:04;;;;;;;7.60;4.50;;;;;;;17.96;93.62;99630.41;105478;1262;98029;-85
2023/09/22 06:12:50;;;;;;;9.10;4.50;;;;;;;18.08;93.46;99624.98;105498;1267;97904;-84
2023/09/22 06:15:36;;;;;;;10.00;4.20;;;;;;;18.19;93.36;99622.42;105633;1262;99710;-86
2023/09/22 06:18:22;;;;;;;5.70;4.30;;;;;;;18.30;93.51;99626.47;105699;1262;101430;-86
2023/09/22 06:21:10;;;;;;;7.70;4.50;;;;;;;18.39;93.19;99623.50;105558;1265;100362;-86
2023/09/22 06:23:56;;;;;;;11.90;4.10;;;;;;;18.50;92.80;99623.37;105765;1263;99010;-85
2023/09/22 06:26:42;;;;;;;9.30;4.70;;;;;;;18.62;92.86;99619.11;105943;1265;97674;-84
2023/09/22 06:29:27;;;;;;;12.80;4.70;;;;;;;18.75;92.67;99621.19;105734;1262;98486;-84
2023/09/22 06:32:13;;;;;;;11.40;4.60;;;;;;;18.85;92.16;99623.14;105770;1262;102489;-83
2023/09/22 06:34:58;;;;;;;8.20;4.20;;;;;;;18.92;91.81;99630.34;106431;1268;99320;-88
2023/09/22 06:40:55;;;;;;;11.00;5.70;;;;;;;19.13;91.33;99622.73;107548;1261;97957;-91
2023/09/22 06:43:44;;;;;;;8.00;4.80;;;;;;;19.24;91.16;99624.40;106524;1270;96444;-89
2023/09/22 06:46:35;;;;;;;9.20;4.50;;;;;;;19.33;90.98;99626.39;106441;1262;103413;-92
2023/09/22 06:49:24;;;;;;;9.20;4.60;;;;;;;19.46;90.65;99627.91;106234;1262;159386;-91
2023/09/22 06:52:10;;;;;;;6.60;4.10;;;;;;;19.60;90.23;99630.11;106576;1268;99126;-90
2023/09/22 06:54:56;;;;;;;11.10;5.00;;;;;;;19.71;90.30;99634.54;106422;1262;97991;-89
2023/09/22 06:57:42;;;;;;;7.30;4.60;;;;;;;19.78;89.86;99636.88;106023;1262;98376;-89
2023/09/22 07:00:28;;;;;;;12.90;4.90;;;;;;;19.82;89.75;99638.56;106125;1262;101426;-87
2023/09/22 07:03:14;;;;;;;9.70;4.90;;;;;;;19.86;89.01;99641.77;106381;1262;100171;-91
2023/09/22 07:06:01;;;;;;;10.30;4.40;;;;;;;19.88;88.46;99643.23;106209;1263;99111;-88
2023/09/22 07:08:48;;;;;;;7.10;4.10;;;;;;;19.89;88.63;99643.46;106179;1262;97970;-88
2023/09/22 07:11:39;;;;;;;8.50;4.60;;;;;;;19.93;88.56;99641.62;106508;1267;98030;-89
2023/09/22 07:14:27;;;;;;;7.50;4.90;;;;;;;19.94;88.21;99644.18;106541;1264;102123;-89
2023/09/22 07:17:14;;;;;;;8.20;4.60;;;;;;;19.97;88.27;99647.98;106319;1264;100249;-89
2023/09/22 07:20:03;;;;;;;15.10;4.90;;;;;;;19.98;88.16;99655.80;106190;1265;98961;-90
2023/09/22 07:22:49;;;;;;;10.70;4.70;;;;;;;20.00;88.17;99657.17;105946;1268;97939;-88
2023/09/22 07:26:09;;;;;;;8.30;5.00;;;;;;;20.03;88.26;99653.54;106505;1263;97959;-89
2023/09/22 07:28:54;;;;;;;12.00;4.80;;;;;;;20.07;88.13;99649.46;106287;1261;102240;-85
2023/09/22 07:31:40;;;;;;;10.10;4.60;;;;;;;20.10;88.09;99645.98;105923;1262;100402;-85
2023/09/22 07:34:25;;;;;;;9.80;4.80;;;;;;;20.15;88.43;99640.11;106522;1262;97734;-87
2023/09/22 07:37:13;;;;;;;8.60;4.90;;;;;;;20.19;88.45;99640.01;106823;1262;97979;-88
2023/09/22 07:39:59;;;;;;;9.10;5.40;;;;;;;20.23;88.11;99642.73;106487;1268;97927;-88
2023/09/22 07:42:45;;;;;;;9.90;5.30;;;;;;;20.27;87.75;99642.15;106414;1262;101965;-87
2023/09/22 07:45:31;;;;;;;9.20;4.80;;;;;;;20.32;87.72;99633.88;106058;1262;99281;-82
2023/09/22 07:48:16;;;;;;;6.90;4.80;;;;;;;20.37;87.89;99633.77;105611;1266;97829;-86
2023/09/22 07:51:02;;;;;;;9.60;5.60;;;;;;;20.43;88.23;99634.84;105788;1265;97857;-86
2023/09/22 07:53:48;;;;;;;10.20;5.40;;;;;;;20.51;87.85;99635.91;105931;1262;98468;-88
2023/09/22 07:56:34;;;;;;;8.30;5.10;;;;;;;20.62;88.06;99640.91;106238;1267;101525;-87
2023/09/22 07:59:20;;;;;;;9.40;5.20;;;;;;;20.77;88.55;99643.59;106131;1264;100269;-89
2023/09/22 08:02:11;;;;;;;12.40;6.00;;;;;;;20.90;88.35;99646.82;106479;1265;97821;-92
2023/09/22 08:05:03;;;;;;;8.50;5.40;;;;;;;21.00;87.62;99650.61;105802;1262;97980;-86
2023/09/22 08:07:53;;;;;;;9.70;5.00;;;;;;;21.08;87.00;99655.73;105880;1268;97795;-86
2023/09/22 08:10:40;;;;;;;10.30;5.00;;;;;;;21.15;86.95;99659.63;105782;1267;102632;-84
2023/09/22 08:13:25;;;;;;;10.10;5.30;;;;;;;21.21;86.62;99661.99;105590;1267;99889;-85
2023/09/22 08:16:13;;;;;;;6.20;4.70;;;;;;;21.25;86.58;99663.44;105790;1267;97967;-84
2023/09/22 08:18:59;;;;;;;11.80;5.00;;;;;;;21.32;87.00;99670.17;105638;1262;97919;-85
2023/09/22 08:21:45;;;;;;;9.40;5.80;;;;;;;21.39;86.53;99671.55;105575;1263;97777;-85
2023/09/22 08:24:31;;;;;;;12.50;5.30;;;;;;;21.49;86.47;99673.36;105511;1262;102189;-86
2023/09/22 08:27:16;;;;;;;9.90;5.90;;;;;;;21.60;86.47;99670.20;105707;1268;99179;-85
2023/09/22 08:30:11;;;;;;;11.40;6.00;;;;;;;21.69;85.99;99660.48;105878;1262;98953;-85
2023/09/22 08:32:58;;;;;;;12.50;5.90;;;;;;;21.79;86.02;99657.88;105845;1265;98040;-84
2023/09/22 08:35:48;;;;;;;13.10;5.90;;;;;;;21.93;85.65;99655.40;105509;1262;99718;-85
2023/09/22 08:38:34;;;;;;;8.10;6.00;;;;;;;22.09;84.89;99652.00;105599;1263;101469;-85
2023/09/22 08:41:20;;;;;;;10.70;5.70;;;;;;;22.27;84.87;99649.19;105717;1267;99254;-84
2023/09/22 08:44:07;;;;;;;10.60;5.30;;;;;;;22.43;84.33;99642.94;105616;1268;108176;-86
2023/09/22 08:46:52;;;;;;;13.30;5.90;;;;;;;22.54;83.84;99637.27;105778;1262;97945;-85
2023/09/22 08:49:38;;;;;;;10.00;5.30;;;;;;;22.61;82.91;99629.23;105544;1270;98635;-84
2023/09/22 08:52:24;;;;;;;14.80;5.50;;;;;;;22.67;82.63;99623.02;105843;1262;101408;-84
2023/09/22 08:55:12;;;;;;;11.90;6.00;;;;;;;22.72;82.20;99616.02;105585;1263;99278;-84
2023/09/22 08:57:58;;;;;;;9.00;6.00;;;;;;;22.78;81.67;99609.14;105543;1267;98061;-84
2023/09/22 09:00:48;;;;;;;9.30;5.20;;;;;;;22.82;81.28;99606.19;105850;1262;98575;-84
2023/09/22 09:03:34;;;;;;;12.80;6.20;;;;;;;22.84;80.98;99602.02;105615;1262;97868;-84
2023/09/22 09:06:20;;;;;;;11.30;6.00;;;;;;;22.89;81.32;99605.89;105480;1262;101477;-83
2023/09/22 09:09:12;;;;;;;10.60;6.20;;;;;;;22.96;80.89;99615.64;105448;1262;100452;-83
2023/09/22 09:12:00;;;;;;;13.10;5.60;;;;;;;23.02;80.62;99616.72;105466;1262;98055;-83
2023/09/22 09:14:47;;;;;;;9.70;6.10;;;;;;;23.08;80.65;99614.07;105401;1268;98726;-84
2023/09/22 09:17:32;;;;;;;9.20;6.10;;;;;;;23.15;80.44;99614.75;105569;1261;98407;-85
2023/09/22 09:20:18;;;;;;;9.90;5.90;;;;;;;23.22;80.03;99610.61;105638;1267;101613;-84
2023/09/22 09:23:14;;;;;;;11.60;7.60;;;;;;;23.29;79.78;99611.83;105529;1262;99259;-85
2023/09/22 09:25:59;;;;;;;11.90;5.90;;;;;;;23.34;79.05;99613.74;105397;1262;98016;-82
2023/09/22 09:28:46;;;;;;;10.80;6.00;;;;;;;23.38;78.82;99602.84;105233;1262;99151;-83
2023/09/22 09:31:46;;;;;;;9.50;6.00;;;;;;;23.42;78.58;99605.67;105705;1266;98505;-85
2023/09/22 09:34:40;;;;;;;10.80;6.10;;;;;;;23.46;78.50;99610.75;105470;1267;102304;-83
2023/09/22 09:37:26;;;;;;;9.00;6.30;;;;;;;23.50;78.42;99613.05;106361;1265;100423;-84
2023/09/22 09:40:12;;;;;;;14.80;7.40;;;;;;;23.53;78.46;99611.04;105553;1267;97990;-84
2023/09/22 09:43:00;;;;;;;10.90;6.30;;;;;;;23.55;77.92;99608.05;105582;1262;96317;-84
2023/09/22 09:45:46;;;;;;;13.40;5.90;;;;;;;23.58;77.85;99608.24;105611;1267;97894;-83
2023/09/22 09:48:37;;;;;;;13.60;6.90;;;;;;;23.57;77.02;99607.04;105687;1262;101537;-84
2023/09/22 09:51:24;;;;;;;7.50;5.40;;;;;;;23.56;76.97;99606.45;105786;1266;100621;-84
2023/09/22 09:54:13;;;;;;;11.60;5.90;;;;;;;23.55;77.27;99610.73;105648;1262;99153;-83
2023/09/22 09:56:59;;;;;;;10.60;6.30;;;;;;;23.56;77.16;99612.30;105957;1262;97868;-84
2023/09/22 09:59:46;;;;;;;9.30;6.00;;;;;;;23.56;77.37;99613.73;105684;1268;98793;-83
2023/09/22 10:02:34;;;;;;;8.50;6.90;;;;;;;23.54;76.82;99613.59;105444;1261;101990;-84
2023/09/22 10:05:23;;;;;;;13.90;6.70;;;;;;;23.52;76.45;99610.33;105518;1268;100613;-83
2023/09/22 10:08:11;;;;;;;10.40;5.90;;;;;;;23.51;76.79;99609.37;105459;1268;98377;-83
2023/09/22 10:11:05;;;;;;;10.70;6.20;;;;;;;23.52;76.68;99611.48;105383;1265;98203;-84
2023/09/22 10:13:50;;;;;;;12.80;6.50;;;;;;;23.55;76.92;99609.80;105380;1264;98402;-84
2023/09/22 10:16:36;;;;;;;14.50;6.00;;;;;;;23.60;77.23;99602.67;105624;1265;102448;-84
2023/09/22 10:19:41;;;;;;;12.30;6.50;;;;;;;23.65;77.18;99594.08;105541;1268;100209;-83
2023/09/22 10:22:28;;;;;;;10.80;6.40;;;;;;;23.68;76.87;99588.88;105599;1268;97838;-84
2023/09/22 10:25:14;;;;;;;10.50;6.60;;;;;;;23.70;76.48;99588.41;105599;1265;97911;-82
2023/09/22 10:28:00;;;;;;;13.40;6.50;;;;;;;23.72;76.38;99581.60;105551;1267;98531;-83
2023/09/22 10:30:45;;;;;;;9.80;6.20;;;;;;;23.74;76.65;99578.62;105689;1262;102021;-84
2023/09/22 10:33:32;;;;;;;13.10;6.40;;;;;;;23.76;76.75;99574.75;105530;1268;100341;-83
2023/09/22 10:36:50;;;;;;;11.30;6.20;;;;;;;23.80;76.99;99580.77;105608;1262;98846;-83
2023/09/22 10:39:55;;;;;;;13.20;5.80;;;;;;;23.86;76.53;99584.21;105453;1262;98040;-83
2023/09/22 10:42:42;;;;;;;8.80;6.50;;;;;;;23.96;76.19;99586.91;105461;1266;98364;-83
2023/09/22 10:45:29;;;;;;;10.20;5.90;;;;;;;24.09;76.25;99591.86;105738;1268;102184;-83
2023/09/22 10:48:14;;;;;;;7.50;5.60;;;;;;;24.22;75.93;99594.44;105672;1267;99071;-84
2023/09/22 10:51:02;;;;;;;9.70;6.10;;;;;;;24.32;75.76;99585.83;105653;1262;97930;-83
2023/09/22 10:54:00;;;;;;;9.90;6.60;;;;;;;24.42;76.21;99579.11;105474;1267;98090;-84
2023/09/22 10:56:46;;;;;;;9.90;6.10;;;;;;;24.54;75.87;99576.81;105639;1263;99693;-83
2023/09/22 10:59:35;;;;;;;11.00;6.30;;;;;;;24.62;75.06;99574.02;105861;1268;101362;-83
2023/09/22 11:02:22;;;;;;;8.60;6.60;;;;;;;24.67;74.42;99561.55;106605;1263;99241;-83
2023/09/22 11:05:11;;;;;;;15.90;7.50;;;;;;;24.71;73.62;99557.54;105684;1263;99256;-83
2023/09/22 11:07:57;;;;;;;10.80;6.40;;;;;;;24.74;73.19;99560.29;105449;1267;97973;-83
2023/09/22 11:10:43;;;;;;;12.00;5.60;;;;;;;24.80;73.23;99558.38;105613;1263;98475;-84
2023/09/22 11:13:29;;;;;;;12.30;6.60;;;;;;;24.86;73.48;99561.73;105465;1268;102715;-84
2023/09/22 11:16:19;;;;;;;8.60;6.90;;;;;;;24.94;73.22;99570.93;105511;1262;100221;-83
2023/09/22 11:19:08;;;;;;;12.60;6.60;;;;;;;25.00;72.95;99571.42;105711;1267;98998;-84
2023/09/22 11:21:59;;;;;;;12.60;6.30;;;;;;;25.06;72.85;99569.42;105395;1267;97919;-83
2023/09/22 11:24:45;;;;;;;;;;;;;;;25.11;72.52;99568.45;105628;1262;98027;-84
2023/09/22 11:27:31;;;;;;;9.90;5.60;;;;;;;25.15;72.01;99567.91;105811;1262;101375;-85
2023/09/22 11:30:27;;;;;;;12.00;5.40;;;;;;;25.20;71.81;99572.73;105814;1267;99241;-84
2023/09/22 11:33:16;;;;;;;10.80;5.50;;;;;;;25.24;71.18;99577.92;105535;1265;97999;-84
2023/09/22 11:36:03;;;;;;;7.10;5.70;;;;;;;25.24;70.86;99585.42;105610;1262;98134;-85
2023/09/22 11:38:55;;;;;;;9.50;5.70;;;;;;;25.23;70.45;99584.33;105755;1262;98103;-84
2023/09/22 11:41:41;;;;;;;9.60;5.80;;;;;;;25.24;70.17;99587.13;105571;1262;102684;-82
2023/09/22 11:44:27;;;;;;;11.80;5.90;;;;;;;25.29;70.77;99593.10;105661;1262;100164;-83
2023/09/22 11:47:21;;;;;;;10.40;6.70;;;;;;;25.36;70.45;99591.75;105650;1266;98051;-84
2023/09/22 11:50:07;;;;;;;10.50;6.00;;;;;;;25.44;70.32;99586.66;105567;1267;99138;-84
2023/09/22 11:53:17;;;;;;;13.10;6.10;;;;;;;25.52;70.26;99589.16;105835;1263;97173;-84
2023/09/22 11:56:03;;;;;;;11.00;6.10;;;;;;;25.56;70.08;99591.39;105600;1262;101699;-83
2023/09/22 11:58:48;;;;;;;8.30;5.80;;;;;;;25.57;69.76;99588.17;105686;1268;100185;-84
2023/09/22 12:01:35;;;;;;;13.20;5.90;;;;;;;25.59;70.28;99593.30;105620;1262;97976;-84
2023/09/22 12:04:22;;;;;;;8.20;5.90;;;;;;;25.60;69.88;99598.08;105576;1267;97999;-84
2023/09/22 12:07:08;;;;;;;14.70;6.50;;;;;;;25.58;69.41;99599.39;105741;1266;97983;-84
2023/09/22 12:09:54;;;;;;;8.70;5.30;;;;;;;25.55;69.00;99604.19;105726;1262;101455;-84
2023/09/22 12:12:40;;;;;;;8.60;5.10;;;;;;;25.49;69.02;99604.27;105879;1276;99127;-88
2023/09/22 12:15:25;;;;;;;11.10;5.40;;;;;;;25.44;69.05;99599.92;105967;1268;97862;-87
2023/09/22 12:18:12;;;;;;;10.30;5.40;;;;;;;25.40;69.36;99599.30;106122;1263;97965;-87
2023/09/22 12:20:58;;;;;;;7.70;5.20;;;;;;;25.37;69.21;99596.55;105967;1268;98443;-86
2023/09/22 12:23:43;;;;;;;8.90;5.60;;;;;;;25.37;69.16;99591.95;105810;1263;101388;-88
2023/09/22 12:26:30;;;;;;;11.30;5.50;;;;;;;25.39;69.54;99590.20;105828;1267;100518;-87
2023/09/22 12:29:16;;;;;;;9.30;6.10;;;;;;;25.42;69.41;99582.33;105713;1262;98014;-87
2023/09/22 12:32:02;;;;;;;8.20;5.90;;;;;;;25.44;69.29;99572.58;105590;1264;97954;-87
2023/09/22 12:34:50;;;;;;;9.20;5.90;;;;;;;25.44;68.88;99572.40;105787;1268;97880;-87
2023/09/22 12:37:35;;;;;;;12.40;5.50;;;;;;;25.43;69.41;99578.34;105754;1268;102334;-84
2023/09/22 12:40:21;;;;;;;13.40;6.20;;;;;;;25.41;69.01;99586.66;105647;1268;100378;-85
2023/09/22 12:43:07;;;;;;;10.50;5.70;;;;;;;25.38;69.14;99578.59;106109;1268;98759;-89
2023/09/22 12:45:53;;;;;;;6.80;5.40;;;;;;;25.37;68.97;99570.19;106265;1266;98029;-88
2023/09/22 12:48:40;;;;;;;13.40;6.00;;;;;;;25.37;69.25;99568.80;105976;1267;98551;-89
2023/09/22 12:51:26;;;;;;;15.70;6.20;;;;;;;25.38;69.09;99573.33;106154;1266;103563;-84
2023/09/22 12:54:11;;;;;;;10.70;5.70;;;;;;;25.39;69.10;99577.70;105875;1266;100348;-84